createdAt,value
2023-04-18T00:00:50.988Z,10.18
2023-04-18T00:01:51.005Z,10.11
2023-04-18T00:02:51.143Z,10.09
2023-04-18T00:03:51.276Z,10.01
2023-04-18T00:04:51.040Z,10.02
2023-04-18T00:05:50.935Z,10.01
2023-04-18T00:06:50.916Z,9.99
2023-04-18T00:07:50.931Z,9.97
2023-04-18T00:08:50.987Z,9.94
2023-04-18T00:09:50.903Z,9.96
2023-04-18T00:10:50.878Z,9.94
2023-04-18T00:11:50.874Z,9.89
2023-04-18T00:12:50.864Z,9.86
2023-04-18T00:13:50.854Z,9.79
2023-04-18T00:14:50.834Z,9.74
2023-04-18T00:15:50.830Z,9.71
2023-04-18T00:16:50.835Z,9.63
2023-04-18T00:17:50.842Z,9.55
2023-04-18T00:18:50.795Z,9.52
2023-04-18T00:19:50.798Z,9.49
2023-04-18T00:20:50.772Z,9.47
2023-04-18T00:21:50.768Z,9.41
2023-04-18T00:22:50.748Z,9.35
2023-04-18T00:23:50.741Z,9.31
2023-04-18T00:24:50.754Z,9.27
2023-04-18T00:25:50.737Z,9.22
2023-04-18T00:26:50.709Z,9.14
2023-04-18T00:27:50.713Z,9.07
2023-04-18T00:28:50.694Z,9.01
2023-04-18T00:29:50.693Z,8.96
2023-04-18T00:30:50.710Z,8.91
2023-04-18T00:31:50.679Z,8.89
2023-04-18T00:32:50.777Z,8.81
2023-04-18T00:33:50.678Z,8.86
2023-04-18T00:34:50.624Z,8.87
2023-04-18T00:35:50.620Z,8.94
2023-04-18T00:36:50.617Z,8.99
2023-04-18T00:37:50.603Z,8.98
2023-04-18T00:38:50.598Z,9.01
2023-04-18T00:39:50.586Z,9.01
2023-04-18T00:40:50.690Z,9.02
2023-04-18T00:41:50.561Z,9.02
2023-04-18T00:42:50.536Z,8.99
2023-04-18T00:43:50.567Z,8.95
2023-04-18T00:44:50.514Z,8.89
2023-04-18T00:45:50.520Z,8.84
2023-04-18T00:46:50.496Z,8.79
2023-04-18T00:47:50.560Z,8.71
2023-04-18T00:48:50.471Z,8.66
2023-04-18T00:49:50.470Z,8.62
2023-04-18T00:50:50.451Z,8.55
2023-04-18T00:51:50.446Z,8.53
2023-04-18T00:52:50.433Z,8.45
2023-04-18T00:53:50.428Z,8.40
2023-04-18T00:54:50.402Z,8.32
2023-04-18T00:55:50.407Z,8.25
2023-04-18T00:56:50.403Z,8.17
2023-04-18T00:57:50.380Z,8.14
2023-04-18T00:58:50.368Z,8.10
2023-04-18T00:59:50.364Z,8.03
2023-04-18T01:00:50.338Z,8.01
2023-04-18T01:01:50.361Z,7.94
2023-04-18T01:02:50.484Z,7.85
2023-04-18T01:03:50.415Z,7.78
2023-04-18T01:04:50.315Z,7.67
2023-04-18T01:05:50.306Z,7.64
2023-04-18T01:06:50.280Z,7.50
2023-04-18T01:07:50.291Z,7.48
2023-04-18T01:08:50.289Z,7.40
2023-04-18T01:09:50.259Z,7.37
2023-04-18T01:10:50.346Z,7.31
2023-04-18T01:11:50.236Z,7.25
2023-04-18T01:12:50.241Z,7.24
2023-04-18T01:13:50.212Z,7.25
2023-04-18T01:14:50.202Z,7.15
2023-04-18T01:15:50.214Z,7.07
2023-04-18T01:16:50.181Z,6.99
2023-04-18T01:17:50.205Z,6.88
2023-04-18T01:18:50.161Z,6.80
2023-04-18T01:19:50.159Z,6.80
2023-04-18T01:20:50.133Z,6.75
2023-04-18T01:21:50.136Z,6.75
2023-04-18T01:22:50.116Z,6.68
2023-04-18T01:23:50.109Z,6.61
2023-04-18T01:24:50.119Z,6.58
2023-04-18T01:25:50.089Z,6.63
2023-04-18T01:26:50.078Z,6.75
2023-04-18T01:27:50.077Z,6.73
2023-04-18T01:28:50.078Z,6.76
2023-04-18T01:29:50.051Z,6.75
2023-04-18T01:30:50.051Z,6.79
2023-04-18T01:31:50.152Z,6.75
2023-04-18T01:32:50.081Z,6.72
2023-04-18T01:33:50.012Z,6.75
2023-04-18T01:34:49.985Z,6.70
2023-04-18T01:35:49.990Z,6.73
2023-04-18T01:36:49.967Z,6.68
2023-04-18T01:37:49.965Z,6.70
2023-04-18T01:38:49.956Z,6.75
2023-04-18T01:39:49.944Z,6.73
2023-04-18T01:40:49.924Z,6.68
2023-04-18T01:41:49.932Z,6.58
2023-04-18T01:42:49.906Z,6.48
2023-04-18T01:43:49.912Z,6.48
2023-04-18T01:44:49.903Z,6.42
2023-04-18T01:45:49.884Z,6.40
2023-04-18T01:46:49.898Z,6.35
2023-04-18T01:47:49.949Z,6.32
2023-04-18T01:48:49.838Z,6.32
2023-04-18T01:49:49.833Z,6.33
2023-04-18T01:50:49.820Z,6.35
2023-04-18T01:51:49.830Z,6.33
2023-04-18T01:52:49.796Z,6.40
2023-04-18T01:53:49.803Z,6.36
2023-04-18T01:54:49.777Z,6.39
2023-04-18T01:55:49.776Z,6.36
2023-04-18T01:56:49.758Z,6.36
2023-04-18T01:57:49.753Z,6.40
2023-04-18T01:58:49.738Z,6.37
2023-04-18T01:59:49.736Z,6.40
2023-04-18T02:00:49.785Z,6.40
2023-04-18T02:01:49.774Z,6.40
2023-04-18T02:02:49.760Z,6.42
2023-04-18T02:03:49.868Z,6.40
2023-04-18T02:04:49.675Z,6.36
2023-04-18T02:05:49.671Z,6.36
2023-04-18T02:06:49.663Z,6.30
2023-04-18T02:07:49.659Z,6.32
2023-04-18T02:08:49.628Z,6.26
2023-04-18T02:09:49.631Z,6.24
2023-04-18T02:10:49.616Z,6.17
2023-04-18T02:11:49.609Z,6.12
2023-04-18T02:12:49.591Z,6.09
2023-04-18T02:13:49.591Z,6.00
2023-04-18T02:14:49.568Z,5.99
2023-04-18T02:15:49.577Z,5.91
2023-04-18T02:16:49.646Z,5.85
2023-04-18T02:17:49.586Z,5.82
2023-04-18T02:18:49.532Z,5.83
2023-04-18T02:19:49.524Z,5.83
2023-04-18T02:20:49.516Z,5.79
2023-04-18T02:21:49.507Z,5.82
2023-04-18T02:22:49.497Z,5.85
2023-04-18T02:23:49.497Z,5.81
2023-04-18T02:26:29.987Z,5.85
2023-04-18T02:27:29.983Z,5.83
2023-04-18T02:28:29.963Z,5.90
2023-04-18T02:29:29.960Z,5.91
2023-04-18T02:30:29.942Z,6.00
2023-04-18T02:31:30.013Z,5.99
2023-04-18T02:32:29.993Z,6.04
2023-04-18T02:33:29.922Z,6.06
2023-04-18T02:34:29.914Z,6.03
2023-04-18T02:35:29.908Z,6.04
2023-04-18T02:36:29.885Z,6.03
2023-04-18T02:37:29.886Z,6.03
2023-04-18T02:38:35.864Z,6.11
2023-04-18T02:39:29.870Z,6.09
2023-04-18T02:40:29.833Z,6.08
2023-04-18T02:41:29.837Z,6.04
2023-04-18T02:42:29.814Z,5.94
2023-04-18T02:43:29.822Z,5.96
2023-04-18T02:44:29.798Z,5.97
2023-04-18T02:45:29.909Z,5.96
2023-04-18T02:46:29.818Z,5.96
2023-04-18T02:47:31.736Z,5.97
2023-04-18T02:48:29.923Z,6.00
2023-04-18T02:49:35.768Z,5.94
2023-04-18T02:50:29.739Z,5.94
2023-04-18T02:51:29.733Z,5.96
2023-04-18T02:52:29.914Z,5.86
2023-04-18T02:53:29.736Z,5.89
2023-04-18T02:54:29.695Z,5.86
2023-04-18T02:55:29.684Z,5.79
2023-04-18T02:56:35.687Z,5.76
2023-04-18T02:57:29.668Z,5.71
2023-04-18T02:58:29.651Z,5.60
2023-04-18T02:59:29.653Z,5.60
2023-04-18T03:00:29.639Z,5.54
2023-04-18T03:01:29.698Z,5.45
2023-04-18T03:02:29.702Z,5.44
2023-04-18T03:03:35.765Z,5.39
2023-04-18T03:04:29.822Z,5.30
2023-04-18T03:05:29.791Z,5.27
2023-04-18T03:06:29.571Z,5.27
2023-04-18T03:07:29.558Z,5.30
2023-04-18T03:08:29.556Z,5.27
2023-04-18T03:09:29.536Z,5.24
2023-04-18T03:10:29.557Z,5.21
2023-04-18T03:11:29.720Z,5.21
2023-04-18T03:12:29.516Z,5.21
2023-04-18T03:13:29.495Z,5.23
2023-04-18T03:14:29.496Z,5.29
2023-04-18T03:15:29.483Z,5.26
2023-04-18T03:16:29.564Z,5.27
2023-04-18T03:17:29.475Z,5.27
2023-04-18T03:18:29.456Z,5.27
2023-04-18T03:19:29.455Z,5.29
2023-04-18T03:20:29.436Z,5.26
2023-04-18T03:21:29.413Z,5.29
2023-04-18T03:22:29.414Z,5.26
2023-04-18T03:23:29.401Z,5.21
2023-04-18T03:24:29.398Z,5.19
2023-04-18T03:25:29.392Z,5.21
2023-04-18T03:26:29.378Z,5.21
2023-04-18T03:27:29.364Z,5.19
2023-04-18T03:28:29.356Z,5.17
2023-04-18T03:29:29.330Z,5.09
2023-04-18T03:30:29.330Z,5.01
2023-04-18T03:31:29.355Z,4.91
2023-04-18T03:32:35.418Z,4.91
2023-04-18T03:33:29.325Z,4.95
2023-04-18T03:34:29.295Z,4.91
2023-04-18T03:35:29.313Z,4.81
2023-04-18T03:36:29.267Z,4.75
2023-04-18T03:37:29.263Z,4.66
2023-04-18T03:38:29.267Z,4.55
2023-04-18T03:39:29.440Z,4.45
2023-04-18T03:40:29.436Z,4.32
2023-04-18T03:41:29.208Z,4.24
2023-04-18T03:42:29.215Z,4.23
2023-04-18T03:43:29.200Z,4.22
2023-04-18T03:44:29.190Z,4.14
2023-04-18T03:45:29.179Z,4.05
2023-04-18T03:46:29.197Z,3.96
2023-04-18T03:47:29.178Z,3.96
2023-04-18T03:48:29.151Z,3.87
2023-04-18T03:49:29.129Z,3.82
2023-04-18T03:50:29.127Z,3.72
2023-04-18T03:51:29.128Z,3.68
2023-04-18T03:52:29.929Z,3.65
2023-04-18T03:53:29.295Z,3.61
2023-04-18T03:54:29.089Z,3.53
2023-04-18T03:55:29.079Z,3.59
2023-04-18T03:56:29.072Z,3.74
2023-04-18T03:57:29.053Z,3.82
2023-04-18T03:58:29.051Z,3.92
2023-04-18T03:59:29.038Z,4.04
2023-04-18T04:00:29.031Z,4.07
2023-04-18T04:01:29.021Z,4.11
2023-04-18T04:02:35.194Z,4.16
2023-04-18T04:03:29.147Z,4.15
2023-04-18T04:04:29.019Z,4.11
2023-04-18T04:05:28.974Z,4.11
2023-04-18T04:06:28.913Z,4.08
2023-04-18T04:07:28.933Z,4.11
2023-04-18T04:08:28.900Z,4.01
2023-04-18T04:09:28.884Z,4.08
2023-04-18T04:10:29.085Z,4.16
2023-04-18T04:11:28.873Z,4.12
2023-04-18T04:12:28.865Z,4.12
2023-04-18T04:13:28.895Z,4.20
2023-04-18T04:14:28.851Z,4.16
2023-04-18T04:15:28.826Z,4.18
2023-04-18T04:16:29.042Z,4.20
2023-04-18T04:17:28.830Z,4.20
2023-04-18T04:18:28.804Z,4.20
2023-04-18T04:19:28.978Z,4.16
2023-04-18T04:20:28.995Z,4.14
2023-04-18T04:21:28.768Z,4.12
2023-04-18T04:22:28.764Z,4.12
2023-04-18T04:23:28.762Z,4.08
2023-04-18T04:24:28.736Z,4.05
2023-04-18T04:25:28.808Z,3.99
2023-04-18T04:26:28.726Z,4.01
2023-04-18T04:27:28.728Z,3.96
2023-04-18T04:28:28.722Z,4.05
2023-04-18T04:29:34.694Z,4.18
2023-04-18T04:30:28.695Z,4.26
2023-04-18T04:31:28.900Z,4.30
2023-04-18T04:32:28.671Z,4.36
2023-04-18T04:33:34.649Z,4.44
2023-04-18T04:34:28.632Z,4.41
2023-04-18T04:35:28.619Z,4.45
2023-04-18T04:36:28.613Z,4.44
2023-04-18T04:37:28.607Z,4.47
2023-04-18T04:38:28.597Z,4.45
2023-04-18T04:39:28.610Z,4.47
2023-04-18T04:40:28.570Z,4.45
2023-04-18T04:41:28.552Z,4.47
2023-04-18T04:42:28.551Z,4.51
2023-04-18T04:43:28.553Z,4.55
2023-04-18T04:44:28.530Z,4.59
2023-04-18T04:45:28.538Z,4.62
2023-04-18T04:46:28.520Z,4.70
2023-04-18T04:47:28.544Z,4.72
2023-04-18T04:48:28.486Z,4.77
2023-04-18T04:49:28.471Z,4.87
2023-04-18T04:50:28.465Z,4.90
2023-04-18T04:51:28.448Z,4.91
2023-04-18T04:52:28.451Z,4.96
2023-04-18T04:53:28.429Z,5.03
2023-04-18T04:54:28.426Z,5.20
2023-04-18T04:55:28.434Z,5.24
2023-04-18T04:56:28.419Z,5.37
2023-04-18T04:57:28.386Z,5.42
2023-04-18T04:58:28.386Z,5.48
2023-04-18T04:59:28.445Z,5.58
2023-04-18T05:00:28.371Z,5.71
2023-04-18T05:01:28.604Z,5.75
2023-04-18T05:02:28.662Z,5.75
2023-04-18T05:03:28.420Z,5.79
2023-04-18T05:04:28.439Z,5.79
2023-04-18T05:05:28.299Z,5.79
2023-04-18T05:06:28.296Z,5.82
2023-04-18T05:07:28.296Z,5.89
2023-04-18T05:08:34.298Z,5.96
2023-04-18T05:09:28.261Z,6.09
2023-04-18T05:10:34.476Z,6.15
2023-04-18T05:11:28.245Z,6.22
2023-04-18T05:12:28.260Z,6.29
2023-04-18T05:13:28.225Z,6.36
2023-04-18T05:14:28.219Z,6.47
2023-04-18T05:15:28.206Z,6.48
2023-04-18T05:16:28.225Z,6.48
2023-04-18T05:17:28.225Z,6.51
2023-04-18T05:18:28.183Z,6.51
2023-04-18T05:19:28.156Z,6.53
2023-04-18T05:20:28.159Z,6.55
2023-04-18T05:21:28.141Z,6.58
2023-04-18T05:22:28.146Z,6.65
2023-04-18T05:23:28.133Z,6.72
2023-04-18T05:24:28.120Z,6.79
2023-04-18T05:25:28.099Z,6.91
2023-04-18T05:26:28.122Z,7.02
2023-04-18T05:27:28.079Z,7.10
2023-04-18T05:28:28.082Z,7.25
2023-04-18T05:29:28.059Z,7.35
2023-04-18T05:30:34.082Z,7.50
2023-04-18T05:31:28.111Z,7.68
2023-04-18T05:32:28.043Z,7.76
2023-04-18T05:33:28.013Z,7.92
2023-04-18T05:34:34.022Z,8.55
2023-04-18T05:35:28.015Z,8.87
2023-04-18T05:36:28.010Z,9.20
2023-04-18T05:37:27.976Z,9.81
2023-04-18T05:38:27.977Z,10.59
2023-04-18T05:39:33.964Z,11.05
2023-04-18T05:40:27.952Z,11.35
2023-04-18T05:41:28.036Z,11.61
2023-04-18T05:42:28.181Z,11.73
2023-04-18T05:43:27.917Z,11.88
2023-04-18T05:44:27.926Z,11.95
2023-04-18T05:45:27.894Z,11.72
2023-04-18T05:46:28.045Z,11.90
2023-04-18T05:47:27.936Z,12.26
2023-04-18T05:48:27.875Z,12.64
2023-04-18T05:49:27.853Z,12.59
2023-04-18T05:50:27.856Z,12.72
2023-04-18T05:51:27.833Z,12.85
2023-04-18T05:52:27.848Z,12.95
2023-04-18T05:53:27.820Z,13.07
2023-04-18T05:54:27.808Z,12.95
2023-04-18T05:55:27.798Z,13.37
2023-04-18T05:56:27.826Z,13.62
2023-04-18T05:57:27.773Z,13.72
2023-04-18T05:58:33.825Z,14.35
2023-04-18T05:59:27.745Z,15.08
2023-04-18T06:00:27.762Z,15.51
2023-04-18T06:01:27.729Z,15.78
2023-04-18T06:02:27.859Z,15.76
2023-04-18T06:03:27.873Z,16.20
2023-04-18T06:04:27.862Z,16.15
2023-04-18T06:05:28.070Z,16.52
2023-04-18T06:06:27.792Z,16.55
2023-04-18T06:07:27.665Z,16.63
2023-04-18T06:08:27.668Z,16.84
2023-04-18T06:09:27.639Z,16.65
2023-04-18T06:10:27.648Z,16.94
2023-04-18T06:11:27.625Z,17.15
2023-04-18T06:12:27.620Z,17.31
2023-04-18T06:13:27.615Z,17.21
2023-04-18T06:14:27.621Z,17.41
2023-04-18T06:15:27.586Z,17.70
2023-04-18T06:16:27.639Z,17.55
2023-04-18T06:17:27.583Z,17.58
2023-04-18T06:18:27.563Z,17.77
2023-04-18T06:19:27.541Z,17.88
2023-04-18T06:20:27.545Z,17.89
2023-04-18T06:21:33.536Z,17.63
2023-04-18T06:22:27.524Z,18.14
2023-04-18T06:23:27.499Z,18.50
2023-04-18T06:24:27.974Z,18.54
2023-04-18T06:25:27.483Z,18.11
2023-04-18T06:26:27.484Z,17.71
2023-04-18T06:27:31.373Z,17.03
2023-04-18T06:28:27.477Z,15.92
2023-04-18T06:29:27.435Z,15.09
2023-04-18T06:30:27.473Z,14.32
2023-04-18T06:31:27.446Z,13.81
2023-04-18T06:32:27.439Z,13.17
2023-04-18T06:33:27.391Z,12.68
2023-04-18T06:34:27.387Z,12.22
2023-04-18T06:35:27.380Z,11.93
2023-04-18T06:36:27.368Z,11.75
2023-04-18T06:37:27.349Z,11.67
2023-04-18T06:38:27.363Z,11.44
2023-04-18T06:39:27.338Z,11.51
2023-04-18T06:40:27.329Z,11.49
2023-04-18T06:41:27.318Z,11.70
2023-04-18T06:42:27.326Z,12.13
2023-04-18T06:43:27.283Z,12.92
2023-04-18T06:44:27.293Z,14.45
2023-04-18T06:45:27.293Z,16.08
2023-04-18T06:46:27.365Z,17.36
2023-04-18T06:47:27.256Z,18.44
2023-04-18T06:48:27.245Z,19.40
2023-04-18T06:49:27.220Z,20.18
2023-04-18T06:50:27.226Z,20.54
2023-04-18T06:51:27.202Z,20.93
2023-04-18T06:52:27.198Z,19.78
2023-04-18T06:53:27.181Z,18.41
2023-04-18T06:54:27.195Z,17.33
2023-04-18T06:55:27.161Z,16.23
2023-04-18T06:56:27.160Z,15.33
2023-04-18T06:57:27.139Z,15.02
2023-04-18T06:58:27.147Z,14.54
2023-04-18T06:59:27.115Z,14.06
2023-04-18T07:00:27.114Z,13.84
2023-04-18T07:01:27.154Z,13.59
2023-04-18T07:02:27.336Z,13.51
2023-04-18T07:03:27.120Z,13.63
2023-04-18T07:04:27.104Z,13.63
2023-04-18T07:05:27.060Z,13.80
2023-04-18T07:06:27.049Z,13.94
2023-04-18T07:07:27.048Z,14.17
2023-04-18T07:08:27.049Z,14.42
2023-04-18T07:09:27.014Z,14.64
2023-04-18T07:10:27.014Z,14.76
2023-04-18T07:11:26.991Z,14.85
2023-04-18T07:12:26.986Z,14.87
2023-04-18T07:13:26.976Z,14.75
2023-04-18T07:14:26.981Z,14.47
2023-04-18T07:15:26.949Z,14.54
2023-04-18T07:16:26.975Z,14.75
2023-04-18T07:17:26.950Z,14.94
2023-04-18T07:18:37.498Z,14.91
2023-04-18T07:19:27.951Z,14.91
2023-04-18T07:20:26.895Z,15.09
2023-04-18T07:21:26.885Z,15.18
2023-04-18T07:22:26.880Z,15.62
2023-04-18T07:23:26.871Z,15.83
2023-04-18T07:24:26.856Z,16.85
2023-04-18T07:25:26.854Z,17.26
2023-04-18T07:26:26.842Z,17.38
2023-04-18T07:27:26.830Z,18.06
2023-04-18T07:28:26.817Z,19.13
2023-04-18T07:29:26.803Z,18.78
2023-04-18T07:30:26.786Z,18.01
2023-04-18T07:31:26.894Z,16.48
2023-04-18T07:32:26.776Z,17.51
2023-04-18T07:33:26.763Z,18.09
2023-04-18T07:34:26.958Z,18.58
2023-04-18T07:35:26.740Z,17.58
2023-04-18T07:36:26.727Z,17.70
2023-04-18T07:37:26.944Z,17.44
2023-04-18T07:38:26.714Z,17.23
2023-04-18T07:39:26.705Z,16.66
2023-04-18T07:40:26.698Z,17.89
2023-04-18T07:41:26.679Z,19.60
2023-04-18T07:42:26.694Z,18.88
2023-04-18T07:43:26.671Z,18.80
2023-04-18T07:44:26.640Z,19.98
2023-04-18T07:45:26.641Z,20.23
2023-04-18T07:46:26.712Z,20.84
2023-04-18T07:47:27.608Z,21.61
2023-04-18T07:48:26.610Z,22.16
2023-04-18T07:49:26.604Z,20.61
2023-04-18T07:50:26.609Z,21.59
2023-04-18T07:51:26.574Z,22.08
2023-04-18T07:52:26.559Z,22.94
2023-04-18T07:53:26.566Z,23.20
2023-04-18T07:54:26.537Z,22.97
2023-04-18T07:55:26.555Z,22.86
2023-04-18T07:56:26.558Z,22.41
2023-04-18T07:57:26.546Z,22.30
2023-04-18T07:58:26.503Z,22.62
2023-04-18T07:59:26.496Z,22.56
2023-04-18T08:01:05.451Z,22.64
2023-04-18T08:02:05.272Z,21.99
2023-04-18T08:03:05.417Z,20.01
2023-04-18T08:04:05.329Z,18.55
2023-04-18T08:05:05.332Z,18.45
2023-04-18T08:06:05.305Z,19.49
2023-04-18T08:07:05.183Z,20.28
2023-04-18T08:08:11.186Z,20.90
2023-04-18T08:09:05.249Z,21.82
2023-04-18T08:10:05.150Z,21.68
2023-04-18T08:11:05.331Z,21.11
2023-04-18T08:12:05.138Z,20.50
2023-04-18T08:13:05.316Z,20.53
2023-04-18T08:14:05.108Z,20.41
2023-04-18T08:15:05.086Z,20.38
2023-04-18T08:16:05.117Z,20.65
2023-04-18T08:17:05.074Z,20.86
2023-04-18T08:18:05.160Z,21.03
2023-04-18T08:19:05.046Z,20.31
2023-04-18T08:20:11.048Z,19.13
2023-04-18T08:21:11.263Z,19.31
2023-04-18T08:22:05.024Z,19.99
2023-04-18T08:23:07.949Z,20.18
2023-04-18T08:24:05.011Z,19.73
2023-04-18T08:25:05.864Z,19.07
2023-04-18T08:26:05.077Z,17.23
2023-04-18T08:27:04.986Z,16.51
2023-04-18T08:28:04.954Z,15.56
2023-04-18T08:29:04.946Z,15.42
2023-04-18T08:30:04.940Z,14.70
2023-04-18T08:31:05.126Z,14.25
2023-04-18T08:32:04.937Z,14.09
2023-04-18T08:33:04.954Z,14.15
2023-04-18T08:34:05.287Z,16.08
2023-04-18T08:35:04.880Z,17.71
2023-04-18T08:36:04.877Z,17.73
2023-04-18T08:37:04.943Z,18.10
2023-04-18T08:38:04.854Z,17.88
2023-04-18T08:39:04.847Z,17.28
2023-04-18T08:40:04.832Z,18.33
2023-04-18T08:41:04.814Z,19.60
2023-04-18T08:42:04.827Z,19.87
2023-04-18T08:43:04.844Z,21.05
2023-04-18T08:44:04.785Z,20.93
2023-04-18T08:45:04.775Z,21.58
2023-04-18T08:46:04.797Z,22.46
2023-04-18T08:47:04.745Z,23.19
2023-04-18T08:48:04.801Z,23.28
2023-04-18T08:49:04.743Z,23.47
2023-04-18T08:50:04.730Z,23.83
2023-04-18T08:51:04.715Z,23.87
2023-04-18T08:52:04.704Z,23.60
2023-04-18T08:53:04.731Z,22.92
2023-04-18T08:54:04.740Z,22.98
2023-04-18T08:55:04.661Z,22.42
2023-04-18T08:56:04.668Z,22.48
2023-04-18T08:57:04.640Z,22.26
2023-04-18T08:58:04.642Z,21.79
2023-04-18T08:59:04.629Z,22.75
2023-04-18T09:00:39.318Z,24.37
2023-04-18T09:01:39.409Z,25.14
2023-04-18T09:02:39.354Z,25.09
2023-04-18T09:03:39.411Z,25.26
2023-04-18T09:04:39.433Z,25.12
2023-04-18T09:05:39.260Z,26.12
2023-04-18T09:06:39.246Z,26.35
2023-04-18T09:07:39.242Z,25.35
2023-04-18T09:08:39.266Z,24.18
2023-04-18T09:09:39.216Z,22.91
2023-04-18T09:10:39.204Z,21.77
2023-04-18T09:11:39.199Z,22.01
2023-04-18T09:12:39.178Z,21.98
2023-04-18T09:13:39.411Z,21.93
2023-04-18T09:14:39.153Z,21.54
2023-04-18T09:15:39.153Z,21.11
2023-04-18T09:16:39.160Z,20.83
2023-04-18T09:17:39.136Z,20.05
2023-04-18T09:18:39.117Z,20.31
2023-04-18T09:19:39.122Z,21.06
2023-04-18T09:20:39.100Z,21.69
2023-04-18T09:21:39.087Z,20.88
2023-04-18T09:22:40.002Z,22.29
2023-04-18T09:23:39.074Z,23.79
2023-04-18T09:24:45.247Z,25.08
2023-04-18T09:25:42.008Z,24.97
2023-04-18T09:26:39.034Z,25.07
2023-04-18T09:27:39.028Z,25.04
2023-04-18T09:28:39.004Z,23.96
2023-04-18T09:29:39.009Z,24.30
2023-04-18T09:30:39.012Z,24.31
2023-04-18T09:31:38.997Z,22.64
2023-04-18T09:32:38.994Z,21.46
2023-04-18T09:33:38.965Z,20.47
2023-04-18T09:34:38.957Z,22.01
2023-04-18T09:35:38.950Z,24.08
2023-04-18T09:36:38.936Z,24.95
2023-04-18T09:37:38.925Z,24.49
2023-04-18T09:38:38.908Z,24.08
2023-04-18T09:39:38.899Z,23.71
2023-04-18T09:40:38.942Z,24.31
2023-04-18T09:41:39.080Z,23.69
2023-04-18T09:42:38.870Z,23.49
2023-04-18T09:43:38.849Z,23.68
2023-04-18T09:44:38.846Z,24.22
2023-04-18T09:45:38.838Z,23.60
2023-04-18T09:46:38.864Z,21.34
2023-04-18T09:47:38.830Z,19.61
2023-04-18T09:48:38.807Z,18.75
2023-04-18T09:49:38.790Z,18.13
2023-04-18T09:50:38.794Z,17.36
2023-04-18T09:51:38.765Z,17.11
2023-04-18T09:52:38.771Z,16.93
2023-04-18T09:53:40.811Z,17.00
2023-04-18T09:54:38.732Z,17.21
2023-04-18T09:55:38.734Z,17.06
2023-04-18T09:56:38.745Z,17.30
2023-04-18T09:57:38.711Z,17.40
2023-04-18T09:58:38.700Z,17.51
2023-04-18T09:59:38.899Z,17.59
2023-04-18T10:00:38.673Z,17.70
2023-04-18T10:01:38.709Z,17.89
2023-04-18T10:02:38.761Z,17.95
2023-04-18T10:03:38.889Z,18.41
2023-04-18T10:04:38.683Z,18.36
2023-04-18T10:05:38.712Z,18.57
2023-04-18T10:06:44.629Z,18.66
2023-04-18T10:07:38.611Z,19.47
2023-04-18T10:08:38.593Z,20.51
2023-04-18T10:09:38.588Z,22.67
2023-04-18T10:10:39.163Z,24.67
2023-04-18T10:11:38.566Z,25.45
2023-04-18T10:12:38.583Z,26.39
2023-04-18T10:13:38.539Z,26.84
2023-04-18T10:14:38.531Z,26.54
2023-04-18T10:15:38.573Z,25.45
2023-04-18T10:16:38.529Z,24.31
2023-04-18T10:17:38.747Z,24.28
2023-04-18T10:18:38.667Z,24.68
2023-04-18T10:19:38.503Z,24.45
2023-04-18T10:20:38.484Z,24.76
2023-04-18T10:21:38.494Z,25.13
2023-04-18T10:22:38.436Z,25.09
2023-04-18T10:23:38.658Z,24.98
2023-04-18T10:24:38.417Z,24.77
2023-04-18T10:25:38.424Z,24.90
2023-04-18T10:26:38.398Z,24.65
2023-04-18T10:27:38.402Z,24.08
2023-04-18T10:28:39.493Z,22.51
2023-04-18T10:29:38.375Z,22.45
2023-04-18T10:30:38.361Z,21.95
2023-04-18T10:31:38.440Z,22.80
2023-04-18T10:32:38.354Z,23.60
2023-04-18T10:33:41.062Z,24.16
2023-04-18T10:34:38.323Z,23.84
2023-04-18T10:35:40.403Z,23.39
2023-04-18T10:36:38.299Z,23.42
2023-04-18T10:37:38.294Z,22.60
2023-04-18T10:39:13.105Z,24.42
2023-04-18T10:40:19.086Z,24.67
2023-04-18T10:41:13.059Z,25.42
2023-04-18T10:42:13.057Z,25.90
2023-04-18T10:43:13.243Z,26.36
2023-04-18T10:44:13.516Z,26.43
2023-04-18T10:45:13.229Z,26.01
2023-04-18T10:46:31.114Z,26.34
2023-04-18T10:47:13.253Z,25.99
2023-04-18T10:48:13.249Z,25.65
2023-04-18T10:49:13.402Z,25.38
2023-04-18T10:50:13.003Z,26.31
2023-04-18T10:51:13.189Z,26.35
2023-04-18T10:52:13.506Z,25.91
2023-04-18T10:53:12.944Z,24.71
2023-04-18T10:54:18.954Z,24.84
2023-04-18T10:55:12.927Z,23.83
2023-04-18T10:56:12.949Z,23.09
2023-04-18T10:57:12.908Z,23.71
2023-04-18T10:58:15.110Z,23.84
2023-04-18T10:59:12.884Z,23.90
2023-04-18T11:00:13.480Z,23.02
2023-04-18T11:01:18.903Z,21.67
2023-04-18T11:02:12.890Z,21.83
2023-04-18T11:03:13.044Z,21.58
2023-04-18T11:04:13.312Z,21.21
2023-04-18T11:05:12.829Z,21.29
2023-04-18T11:06:12.819Z,22.76
2023-04-18T11:07:47.511Z,23.15
2023-04-18T11:08:47.495Z,21.62
2023-04-18T11:09:47.479Z,20.75
2023-04-18T11:10:53.495Z,20.58
2023-04-18T11:12:30.175Z,19.64
2023-04-18T11:13:30.161Z,19.00
2023-04-18T11:14:30.139Z,18.66
2023-04-18T11:15:31.093Z,18.72
2023-04-18T11:16:30.199Z,18.82
2023-04-18T11:17:36.202Z,19.13
2023-04-18T11:18:30.113Z,19.53
2023-04-18T11:19:30.101Z,19.61
2023-04-18T11:20:30.082Z,19.45
2023-04-18T11:21:30.886Z,19.22
2023-04-18T11:22:30.065Z,18.90
2023-04-18T11:23:30.076Z,18.72
2023-04-18T11:24:30.052Z,18.54
2023-04-18T11:25:30.047Z,18.32
2023-04-18T11:26:30.027Z,18.25
2023-04-18T11:27:30.055Z,17.96
2023-04-18T11:28:30.014Z,17.85
2023-04-18T11:29:30.003Z,17.70
2023-04-18T11:30:29.988Z,17.11
2023-04-18T11:31:30.152Z,16.55
2023-04-18T11:32:30.122Z,16.17
2023-04-18T11:33:29.965Z,16.00
2023-04-18T11:34:29.965Z,15.72
2023-04-18T11:35:29.949Z,15.49
2023-04-18T11:36:29.930Z,15.37
2023-04-18T11:37:29.921Z,15.09
2023-04-18T11:38:29.904Z,14.85
2023-04-18T11:39:29.909Z,14.68
2023-04-18T11:40:29.881Z,14.45
2023-04-18T11:41:29.880Z,14.42
2023-04-18T11:42:31.923Z,14.37
2023-04-18T11:43:29.848Z,14.40
2023-04-18T11:44:29.851Z,14.52
2023-04-18T11:45:30.043Z,14.32
2023-04-18T11:46:36.135Z,14.36
2023-04-18T11:47:29.837Z,14.40
2023-04-18T11:48:29.804Z,14.51
2023-04-18T11:49:29.786Z,14.57
2023-04-18T11:50:29.790Z,14.46
2023-04-18T11:51:29.779Z,14.45
2023-04-18T11:52:29.763Z,14.17
2023-04-18T11:53:29.747Z,14.18
2023-04-18T11:54:29.742Z,14.32
2023-04-18T11:55:29.728Z,14.46
2023-04-18T11:56:29.739Z,14.52
2023-04-18T11:57:29.722Z,14.54
2023-04-18T11:58:29.707Z,14.72
2023-04-18T11:59:29.889Z,14.95
2023-04-18T12:00:29.683Z,15.26
2023-04-18T12:01:29.677Z,15.43
2023-04-18T12:02:29.838Z,15.64
2023-04-18T12:03:30.002Z,15.94
2023-04-18T12:04:35.976Z,16.05
2023-04-18T12:05:29.954Z,16.26
2023-04-18T12:06:29.735Z,16.37
2023-04-18T12:07:29.605Z,16.81
2023-04-18T12:08:29.592Z,17.03
2023-04-18T12:09:35.585Z,16.85
2023-04-18T12:10:29.786Z,16.78
2023-04-18T12:11:29.556Z,16.59
2023-04-18T12:12:29.552Z,16.59
2023-04-18T12:13:31.614Z,16.51
2023-04-18T12:14:29.517Z,16.23
2023-04-18T12:15:29.525Z,16.07
2023-04-18T12:16:29.619Z,15.83
2023-04-18T12:17:29.515Z,15.82
2023-04-18T12:18:29.562Z,15.80
2023-04-18T12:19:29.478Z,15.83
2023-04-18T12:20:29.461Z,16.05
2023-04-18T12:21:29.474Z,16.05
2023-04-18T12:22:29.445Z,16.19
2023-04-18T12:23:29.443Z,16.09
2023-04-18T12:24:29.436Z,15.82
2023-04-18T12:25:29.418Z,15.82
2023-04-18T12:26:29.398Z,15.90
2023-04-18T12:27:29.399Z,16.01
2023-04-18T12:28:29.386Z,16.12
2023-04-18T12:29:29.371Z,16.08
2023-04-18T12:30:29.377Z,15.92
2023-04-18T12:31:29.374Z,15.86
2023-04-18T12:32:29.363Z,15.80
2023-04-18T12:33:29.333Z,15.74
2023-04-18T12:34:29.378Z,15.51
2023-04-18T12:35:29.317Z,15.38
2023-04-18T12:36:29.495Z,15.34
2023-04-18T12:37:29.289Z,15.27
2023-04-18T12:38:29.304Z,15.24
2023-04-18T12:39:29.270Z,15.09
2023-04-18T12:40:35.267Z,15.06
2023-04-18T12:41:29.450Z,15.01
2023-04-18T12:42:35.245Z,15.15
2023-04-18T12:43:29.271Z,15.31
2023-04-18T12:44:29.274Z,15.43
2023-04-18T12:45:29.220Z,15.57
2023-04-18T12:46:29.207Z,15.72
2023-04-18T12:47:29.212Z,15.89
2023-04-18T12:48:29.172Z,16.01
2023-04-18T12:49:29.172Z,16.01
2023-04-18T12:50:29.187Z,15.71
2023-04-18T12:51:29.165Z,15.69
2023-04-18T12:52:29.124Z,15.83
2023-04-18T12:53:29.359Z,15.82
2023-04-18T12:54:36.745Z,15.76
2023-04-18T12:55:29.124Z,15.78
2023-04-18T12:56:29.085Z,15.74
2023-04-18T12:57:31.576Z,15.65
2023-04-18T12:58:29.064Z,15.49
2023-04-18T12:59:29.252Z,15.26
2023-04-18T13:00:29.210Z,15.30
2023-04-18T13:01:29.175Z,15.50
2023-04-18T13:02:29.252Z,15.51
2023-04-18T13:03:29.233Z,15.46
2023-04-18T13:04:35.196Z,15.59
2023-04-18T13:05:32.527Z,15.27
2023-04-18T13:06:29.029Z,15.27
2023-04-18T13:07:28.975Z,15.24
2023-04-18T13:08:28.952Z,15.38